Time;durP1;ratioP1;P1;durP2;ratioP2;P2;SDS_P1;SDS_P2;PMS_P1;PMS_P2;Temp;Humidity;BMP_temperature;BMP_pressure;BME280_temperature;BME280_humidity;BME280_pressure;Samples;Min_cycle;Max_cycle;Signal;HPM_P1;HPM_P2
2021/06/06 00:00:59;;;;;;;5.72;1.58;;;;;;;14.57;100.00;96793.88;5060055;28;20520;-61
2021/06/06 00:03:31;;;;;;;1.88;1.77;;;;;;;14.47;100.00;96794.81;5057504;28;20307;-63
2021/06/06 00:06:00;;;;;;;2.55;1.90;;;;;;;14.53;100.00;96793.38;5053091;28;20061;-62
2021/06/06 00:08:29;;;;;;;1.70;1.52;;;;;;;14.48;100.00;96796.47;5057508;28;20068;-59
2021/06/06 00:11:00;;;;;;;2.00;1.80;;;;;;;14.47;100.00;96797.47;5058450;28;20067;-61
2021/06/06 00:13:27;;;;;;;;;;;;;;;14.48;100.00;96798.28;5058496;28;20069;-62
2021/06/06 00:15:55;;;;;;;1.70;1.60;;;;;;;14.41;100.00;96791.97;5056480;28;20404;-64
2021/06/06 00:18:24;;;;;;;2.50;1.90;;;;;;;14.59;100.00;96790.09;5056267;28;20252;-62
2021/06/06 00:20:53;;;;;;;2.05;1.80;;;;;;;14.59;100.00;96790.09;5051539;28;20072;-65
2021/06/06 00:23:21;;;;;;;2.00;1.70;;;;;;;14.43;100.00;96792.66;5057640;28;20068;-64
2021/06/06 00:25:49;;;;;;;2.40;2.05;;;;;;;14.53;100.00;96782.75;5057340;28;20072;-64
2021/06/06 00:28:17;;;;;;;2.33;1.90;;;;;;;14.47;100.00;96789.50;5055964;28;20095;-63
2021/06/06 00:30:45;;;;;;;2.10;1.90;;;;;;;14.40;100.00;96790.31;5061179;28;20084;-64
2021/06/06 00:33:13;;;;;;;1.90;1.80;;;;;;;14.52;100.00;96789.06;5059031;28;20087;-64
2021/06/06 00:35:41;;;;;;;2.10;1.90;;;;;;;14.53;100.00;96787.25;5052611;28;20061;-63
2021/06/06 00:38:10;;;;;;;4.00;2.15;;;;;;;14.41;100.00;96792.78;5056214;28;20095;-64
2021/06/06 00:40:38;;;;;;;2.17;1.98;;;;;;;14.43;100.00;96784.69;5055660;28;20071;-64
2021/06/06 00:43:07;;;;;;;1.98;1.83;;;;;;;14.46;100.00;96777.22;5058014;28;20072;-64
2021/06/06 00:45:36;;;;;;;2.13;1.90;;;;;;;14.41;100.00;96781.34;5059293;28;20084;-64
2021/06/06 00:48:06;;;;;;;2.28;2.08;;;;;;;14.54;100.00;96786.25;5055526;28;20434;-64
2021/06/06 00:50:36;;;;;;;2.10;1.90;;;;;;;14.48;100.00;96777.88;5056325;28;20095;-64
2021/06/06 00:53:07;;;;;;;2.03;1.80;;;;;;;14.44;100.00;96789.81;5057523;28;20075;-64
2021/06/06 00:55:38;;;;;;;2.63;2.08;;;;;;;14.42;100.00;96791.00;5053798;28;20080;-64
2021/06/06 00:58:09;;;;;;;2.20;2.00;;;;;;;14.49;100.00;96784.88;5059279;28;20064;-64
2021/06/06 01:00:39;;;;;;;2.90;2.10;;;;;;;14.42;100.00;96788.34;5062095;28;20072;-65
2021/06/06 01:03:08;;;;;;;2.50;2.20;;;;;;;14.37;100.00;96780.00;5054541;28;20056;-64
2021/06/06 01:05:40;;;;;;;2.53;2.30;;;;;;;14.44;100.00;96781.03;5057943;28;20079;-64
2021/06/06 01:08:10;;;;;;;2.53;2.00;;;;;;;14.46;100.00;96790.50;5058083;28;20060;-65
2021/06/06 01:10:40;;;;;;;2.10;1.90;;;;;;;14.53;100.00;96784.59;5054507;28;20073;-64
2021/06/06 01:13:11;;;;;;;4.20;2.07;;;;;;;14.49;100.00;96784.03;5057888;28;20080;-64
2021/06/06 01:15:39;;;;;;;2.30;2.05;;;;;;;14.46;100.00;96787.03;5058304;28;20080;-63
2021/06/06 01:18:11;;;;;;;3.58;2.08;;;;;;;14.50;100.00;96785.72;5056835;28;20465;-63
2021/06/06 01:20:48;;;;;;;2.33;2.10;;;;;;;14.66;100.00;96767.19;5059252;28;20766;-64
2021/06/06 01:23:38;;;;;;;2.90;2.28;;;;;;;14.51;100.00;96782.06;5053840;28;20458;-64
2021/06/06 01:26:11;;;;;;;2.55;2.35;;;;;;;14.49;100.00;96776.09;5045081;28;20072;-64
2021/06/06 01:28:43;;;;;;;2.70;2.25;;;;;;;14.46;100.00;96774.56;5052746;28;20064;-64
2021/06/06 01:31:13;;;;;;;2.63;2.35;;;;;;;14.65;100.00;96768.19;5055546;28;20095;-64
2021/06/06 01:33:44;;;;;;;2.67;1.98;;;;;;;14.54;100.00;96765.00;5059594;28;20095;-65
2021/06/06 01:36:16;;;;;;;3.55;2.28;;;;;;;14.65;100.00;96772.66;5053473;28;20540;-63
2021/06/06 01:38:48;;;;;;;3.35;2.25;;;;;;;14.54;100.00;96771.16;5052822;28;20068;-65
2021/06/06 01:41:21;;;;;;;3.17;2.50;;;;;;;14.64;100.00;96774.47;5061777;28;20146;-65
2021/06/06 01:43:51;;;;;;;2.58;2.15;;;;;;;14.59;100.00;96765.34;5054559;28;20075;-64
2021/06/06 01:46:23;;;;;;;2.28;2.08;;;;;;;14.58;100.00;96767.16;5060325;28;20456;-64
2021/06/06 01:48:52;;;;;;;3.30;2.20;;;;;;;14.69;100.00;96763.38;5057124;28;20084;-64
2021/06/06 01:51:23;;;;;;;2.90;2.33;;;;;;;14.46;100.00;96771.91;5058625;28;20082;-62
2021/06/06 01:53:51;;;;;;;2.45;2.10;;;;;;;14.61;100.00;96758.88;5053295;28;20068;-62
2021/06/06 01:56:24;;;;;;;2.75;2.40;;;;;;;14.63;100.00;96759.56;5057842;28;20071;-63
2021/06/06 01:58:55;;;;;;;2.33;2.13;;;;;;;14.56;100.00;96745.28;5052966;28;20680;-66
2021/06/06 02:01:25;;;;;;;2.65;2.45;;;;;;;14.55;100.00;96761.34;5057175;28;20494;-64
2021/06/06 02:03:55;;;;;;;2.58;2.38;;;;;;;14.56;100.00;96755.91;5062683;28;20531;-64
2021/06/06 02:06:27;;;;;;;3.40;2.55;;;;;;;14.60;100.00;96762.53;5057739;28;20044;-65
2021/06/06 02:08:57;;;;;;;2.67;2.45;;;;;;;14.51;100.00;96760.03;5053279;28;20524;-63
2021/06/06 02:11:30;;;;;;;3.17;2.42;;;;;;;14.44;100.00;96767.75;5063992;28;20068;-64
2021/06/06 02:14:00;;;;;;;4.88;2.40;;;;;;;14.62;100.00;96755.22;5060871;28;20071;-60
2021/06/06 02:16:32;;;;;;;2.63;2.20;;;;;;;14.72;100.00;96755.09;5062178;28;20486;-64
2021/06/06 02:19:00;;;;;;;2.38;2.17;;;;;;;14.63;100.00;96746.28;5060757;28;20091;-63
2021/06/06 02:21:29;;;;;;;2.30;2.10;;;;;;;14.48;100.00;96740.72;5063740;28;20080;-65
2021/06/06 02:23:58;;;;;;;2.42;2.22;;;;;;;14.55;100.00;96748.09;5061758;28;20420;-64
2021/06/06 02:26:31;;;;;;;4.07;2.30;;;;;;;14.57;100.00;96751.41;5060137;28;20064;-64
2021/06/06 02:29:03;;;;;;;3.22;2.30;;;;;;;14.52;100.00;96745.75;5053776;28;20077;-63
2021/06/06 02:31:35;;;;;;;3.10;2.05;;;;;;;14.49;100.00;96754.84;5060384;28;20068;-64
2021/06/06 02:34:11;;;;;;;3.85;2.53;;;;;;;14.47;100.00;96755.00;5059555;28;20103;-65
2021/06/06 02:36:41;;;;;;;3.15;2.20;;;;;;;14.24;100.00;96756.56;5059362;28;20429;-64
2021/06/06 02:39:12;;;;;;;2.50;2.30;;;;;;;14.40;100.00;96763.78;5053981;28;20535;-63
2021/06/06 02:41:46;;;;;;;2.40;2.20;;;;;;;14.44;100.00;96755.31;5061401;28;20060;-64
2021/06/06 02:44:16;;;;;;;2.35;2.13;;;;;;;14.43;100.00;96747.53;5056961;28;20064;-65
2021/06/06 02:46:44;;;;;;;;;;;;;;;14.66;100.00;96742.50;5053451;28;20076;-64
2021/06/06 02:49:15;;;;;;;2.50;2.30;;;;;;;14.40;100.00;96753.16;5059956;28;19964;-64
2021/06/06 02:51:44;;;;;;;;;;;;;;;14.32;100.00;96753.16;5059980;28;20072;-66
2021/06/06 02:54:16;;;;;;;2.78;2.30;;;;;;;14.47;100.00;96751.53;5061717;28;20355;-64
2021/06/06 02:56:47;;;;;;;2.78;2.42;;;;;;;14.46;100.00;96756.00;5059565;28;20076;-65
2021/06/06 02:59:17;;;;;;;2.35;2.15;;;;;;;14.35;100.00;96756.31;5062419;28;20592;-64
2021/06/06 03:01:50;;;;;;;2.63;2.30;;;;;;;14.51;100.00;96749.41;5057481;28;20060;-65
2021/06/06 03:04:20;;;;;;;3.00;2.55;;;;;;;14.33;100.00;96754.81;5057437;28;20403;-64
2021/06/06 03:06:51;;;;;;;2.92;2.28;;;;;;;14.42;100.00;96757.31;5054331;28;20083;-64
2021/06/06 03:09:19;;;;;;;4.28;2.30;;;;;;;14.55;100.00;96745.44;5061117;28;20079;-65
2021/06/06 03:11:51;;;;;;;3.53;2.28;;;;;;;14.57;100.00;96740.81;5050737;28;20736;-60
2021/06/06 03:14:22;;;;;;;3.60;2.47;;;;;;;14.52;100.00;96746.59;5062058;28;20064;-64
2021/06/06 03:16:55;;;;;;;3.33;2.47;;;;;;;14.52;100.00;96751.91;5057222;28;20106;-62
2021/06/06 03:19:25;;;;;;;2.78;2.50;;;;;;;14.47;100.00;96759.47;5057132;28;20075;-64
2021/06/06 03:21:54;;;;;;;2.85;2.30;;;;;;;14.60;100.00;96754.56;5059609;28;20080;-64
2021/06/06 03:24:25;;;;;;;2.83;2.50;;;;;;;14.54;100.00;96749.91;5058768;28;20072;-64
2021/06/06 03:26:55;;;;;;;2.80;2.47;;;;;;;14.52;100.00;96751.06;5052344;28;20481;-64
2021/06/06 03:29:27;;;;;;;3.70;2.25;;;;;;;14.49;100.00;96749.56;5061593;28;20044;-65
2021/06/06 03:31:59;;;;;;;2.90;2.28;;;;;;;14.60;100.00;96746.63;5050804;28;20065;-62
2021/06/06 03:34:27;;;;;;;2.53;2.33;;;;;;;14.70;100.00;96743.81;5057779;28;20713;-65
2021/06/06 03:36:55;;;;;;;3.00;2.50;;;;;;;14.54;100.00;96755.22;5060186;28;20067;-64
2021/06/06 03:39:27;;;;;;;3.90;2.60;;;;;;;14.53;100.00;96742.94;5057841;28;20202;-65
2021/06/06 03:41:58;;;;;;;3.40;2.42;;;;;;;14.45;100.00;96756.16;5052234;28;20087;-65
2021/06/06 03:44:27;;;;;;;3.72;2.63;;;;;;;14.45;100.00;96753.50;5059315;28;20075;-64
2021/06/06 03:46:56;;;;;;;2.83;2.20;;;;;;;14.46;100.00;96756.00;5058404;28;20066;-63
2021/06/06 03:49:24;;;;;;;2.45;2.25;;;;;;;14.57;100.00;96749.59;5059753;28;20075;-65
2021/06/06 03:51:52;;;;;;;4.22;2.63;;;;;;;14.54;100.00;96741.13;5058687;28;20083;-64
2021/06/06 03:54:20;;;;;;;3.20;2.47;;;;;;;14.55;100.00;96740.13;5058910;28;20064;-65
2021/06/06 03:56:50;;;;;;;3.95;2.50;;;;;;;14.59;100.00;96741.44;5054663;28;20068;-62
2021/06/06 03:59:20;;;;;;;3.33;2.50;;;;;;;14.44;100.00;96734.09;5056825;28;20555;-65
2021/06/06 04:01:48;;;;;;;;;;;;;;;14.43;100.00;96726.31;5058229;28;20080;-60
2021/06/06 04:04:17;;;;;;;3.05;2.40;;;;;;;14.67;100.00;96720.25;5052480;28;19961;-64
2021/06/06 04:06:45;;;;;;;2.40;2.20;;;;;;;14.50;100.00;96732.66;5061100;28;20076;-65
2021/06/06 04:09:13;;;;;;;3.47;2.47;;;;;;;14.61;100.00;96726.22;5057684;28;20075;-65
2021/06/06 04:11:42;;;;;;;2.33;2.13;;;;;;;14.39;100.00;96722.31;5056614;28;20547;-64
2021/06/06 04:14:10;;;;;;;3.03;2.40;;;;;;;14.53;100.00;96719.06;5057098;28;20064;-64
2021/06/06 04:16:39;;;;;;;2.90;2.40;;;;;;;14.52;100.00;96719.22;5056934;28;20067;-64
2021/06/06 04:19:11;;;;;;;2.50;2.30;;;;;;;14.73;100.00;96727.56;5058821;28;20091;-65
2021/06/06 04:21:39;;;;;;;2.40;2.20;;;;;;;14.45;100.00;96719.84;5058173;28;20083;-64
2021/06/06 04:24:07;;;;;;;3.55;2.35;;;;;;;14.49;100.00;96723.00;5056893;28;20075;-63
2021/06/06 04:26:35;;;;;;;2.40;2.20;;;;;;;14.65;100.00;96725.72;5055616;28;20075;-64
2021/06/06 04:29:03;;;;;;;2.40;2.17;;;;;;;14.54;100.00;96722.53;5052628;28;20072;-64
2021/06/06 04:31:32;;;;;;;4.13;2.47;;;;;;;14.60;100.00;96728.03;5056025;28;20071;-64
2021/06/06 04:34:01;;;;;;;2.95;2.30;;;;;;;14.67;100.00;96726.38;5055571;28;20068;-63
2021/06/06 04:36:29;;;;;;;2.47;2.15;;;;;;;14.61;100.00;96729.69;5061059;28;20076;-63
2021/06/06 04:38:57;;;;;;;3.58;2.30;;;;;;;14.62;100.00;96726.03;5055223;28;20064;-64
2021/06/06 04:41:25;;;;;;;2.42;2.00;;;;;;;14.78;100.00;96727.06;5058511;28;20064;-65
2021/06/06 04:43:53;;;;;;;4.47;2.30;;;;;;;14.70;100.00;96723.41;5059935;28;20072;-64
2021/06/06 04:46:21;;;;;;;2.40;2.20;;;;;;;14.69;100.00;96721.75;5055818;28;20076;-62
2021/06/06 04:48:49;;;;;;;2.40;2.20;;;;;;;14.67;100.00;96726.38;5061463;28;20076;-65
2021/06/06 04:51:21;;;;;;;2.80;1.80;;;;;;;14.64;100.00;96718.75;5054216;28;20068;-65
2021/06/06 04:53:50;;;;;;;2.40;2.20;;;;;;;14.72;100.00;96723.22;5057389;28;20095;-65
2021/06/06 04:56:20;;;;;;;2.60;2.28;;;;;;;14.80;100.00;96723.25;5049885;28;20067;-65
2021/06/06 04:58:48;;;;;;;2.57;2.27;;;;;;;14.61;100.00;96736.81;5056728;28;20059;-65
2021/06/06 05:01:16;;;;;;;2.47;2.10;;;;;;;14.84;100.00;96732.56;5054755;28;20116;-63
2021/06/06 05:03:44;;;;;;;4.47;2.15;;;;;;;14.88;100.00;96733.88;5061742;28;20481;-63
2021/06/06 05:06:13;;;;;;;3.30;2.40;;;;;;;14.95;100.00;96732.22;5057016;28;20068;-62
2021/06/06 05:08:43;;;;;;;2.55;2.10;;;;;;;14.93;100.00;96728.91;5061169;28;20061;-65
2021/06/06 05:11:11;;;;;;;3.88;2.40;;;;;;;14.91;100.00;96738.03;5057262;28;20079;-62
2021/06/06 05:13:39;;;;;;;2.47;2.22;;;;;;;14.85;100.00;96736.03;5057328;28;20071;-64
2021/06/06 05:16:07;;;;;;;2.38;2.17;;;;;;;14.98;100.00;96732.91;5051811;28;20116;-63
2021/06/06 05:18:35;;;;;;;2.40;2.10;;;;;;;15.13;100.00;96733.88;5060683;28;20076;-64
2021/06/06 05:21:05;;;;;;;5.32;2.08;;;;;;;14.93;100.00;96738.69;5053674;28;20469;-62
2021/06/06 05:23:33;;;;;;;2.40;2.00;;;;;;;15.04;100.00;96730.41;5050091;28;20071;-64
2021/06/06 05:26:04;;;;;;;2.22;1.88;;;;;;;15.12;100.00;96732.22;5051003;28;20182;-62
2021/06/06 05:28:34;;;;;;;2.30;2.10;;;;;;;15.20;100.00;96726.91;5054270;28;20538;-62
2021/06/06 05:31:03;;;;;;;2.80;2.25;;;;;;;15.32;100.00;96736.22;5055193;28;20460;-62
2021/06/06 05:33:31;;;;;;;2.05;1.88;;;;;;;15.16;100.00;96731.72;5061025;28;20076;-63
2021/06/06 05:35:59;;;;;;;2.30;1.88;;;;;;;15.24;100.00;96728.22;5059834;28;20079;-64
2021/06/06 05:38:31;;;;;;;2.05;1.85;;;;;;;15.35;100.00;96725.25;5061413;28;20071;-63
2021/06/06 05:41:01;;;;;;;2.58;1.80;;;;;;;15.42;100.00;96731.56;5063514;28;20064;-62
2021/06/06 05:43:30;;;;;;;1.95;1.70;;;;;;;15.32;100.00;96738.03;5059056;28;20073;-63
2021/06/06 05:45:59;;;;;;;2.42;1.70;;;;;;;15.23;100.00;96733.72;5059816;28;20077;-63
2021/06/06 05:48:28;;;;;;;2.30;1.83;;;;;;;15.31;100.00;96733.69;5056755;28;20535;-64
2021/06/06 05:50:58;;;;;;;2.92;1.90;;;;;;;15.39;100.00;96729.22;5058587;28;20136;-62
2021/06/06 05:53:26;;;;;;;;;;;;;;;15.29;100.00;96728.56;5061918;28;20075;-64
2021/06/06 05:55:54;;;;;;;1.90;1.58;;;;;;;15.40;100.00;96724.72;5061407;28;19975;-63
2021/06/06 05:58:23;;;;;;;1.67;1.58;;;;;;;15.36;100.00;96729.56;5053588;28;20072;-62
2021/06/06 06:00:52;;;;;;;2.45;1.70;;;;;;;15.47;100.00;96731.03;5061130;28;20080;-63
2021/06/06 06:03:21;;;;;;;2.50;1.95;;;;;;;15.33;100.00;96732.53;5057189;28;20072;-62
2021/06/06 06:05:49;;;;;;;2.10;1.90;;;;;;;15.42;100.00;96736.88;5059306;28;20072;-64
2021/06/06 06:08:20;;;;;;;3.15;1.77;;;;;;;15.59;100.00;96727.03;5058978;28;20559;-60
2021/06/06 06:10:49;;;;;;;2.53;1.80;;;;;;;15.68;100.00;96719.06;5057267;28;20064;-64
2021/06/06 06:13:20;;;;;;;2.40;1.60;;;;;;;15.53;100.00;96729.53;5054521;28;20490;-63
2021/06/06 06:15:48;;;;;;;1.70;1.50;;;;;;;15.49;100.00;96722.91;5065908;28;20076;-63
2021/06/06 06:18:20;;;;;;;1.50;1.40;;;;;;;15.67;100.00;96710.25;5054485;28;20060;-64
2021/06/06 06:20:48;;;;;;;1.92;1.40;;;;;;;15.59;100.00;96713.75;5057364;28;20663;-62
2021/06/06 06:23:16;;;;;;;1.60;1.50;;;;;;;15.80;100.00;96713.22;5058364;28;20279;-63
2021/06/06 06:25:44;;;;;;;1.40;1.30;;;;;;;15.82;100.00;96713.88;5061183;28;21272;-63
2021/06/06 06:28:12;;;;;;;2.22;1.40;;;;;;;15.92;100.00;96716.31;5048342;28;20660;-62
2021/06/06 06:30:40;;;;;;;1.85;1.25;;;;;;;16.04;100.00;96704.31;5060181;28;20089;-64
2021/06/06 06:33:09;;;;;;;1.88;1.40;;;;;;;16.17;100.00;96701.09;5056891;28;20076;-62
2021/06/06 06:35:38;;;;;;;1.30;1.20;;;;;;;16.34;100.00;96702.69;5057827;28;20082;-65
2021/06/06 06:38:07;;;;;;;1.52;1.20;;;;;;;16.30;100.00;96703.19;5056465;28;20071;-64
2021/06/06 06:40:36;;;;;;;1.58;1.05;;;;;;;16.29;100.00;96696.22;5057089;28;20071;-65
2021/06/06 06:43:05;;;;;;;1.40;1.20;;;;;;;16.86;100.00;96698.53;5055683;28;20084;-63
2021/06/06 06:45:35;;;;;;;1.25;1.10;;;;;;;16.62;100.00;96702.19;5057636;28;20077;-65
2021/06/06 06:48:05;;;;;;;1.25;1.13;;;;;;;16.75;100.00;96702.44;5060483;28;20559;-63
2021/06/06 06:50:33;;;;;;;1.25;1.00;;;;;;;16.72;100.00;96693.94;5057870;28;20052;-63
2021/06/06 06:53:03;;;;;;;1.80;0.90;;;;;;;17.32;100.00;96690.50;5060311;28;20071;-64
2021/06/06 06:55:32;;;;;;;1.20;1.10;;;;;;;17.25;100.00;96698.41;5053070;28;20105;-64
2021/06/06 06:58:01;;;;;;;0.93;0.93;;;;;;;17.06;100.00;96693.56;5057490;28;20135;-64
2021/06/06 07:00:32;;;;;;;1.10;1.00;;;;;;;17.90;100.00;96693.44;5056528;28;20083;-65
2021/06/06 07:03:05;;;;;;;1.00;0.90;;;;;;;17.84;100.00;96688.84;5058460;28;20080;-63
2021/06/06 07:05:34;;;;;;;1.27;1.02;;;;;;;17.52;100.00;96698.81;5057012;28;20073;-65
2021/06/06 07:08:04;;;;;;;1.75;0.90;;;;;;;17.61;100.00;96692.38;5057527;28;20071;-64
2021/06/06 07:10:33;;;;;;;;;;;;;;;17.35;100.00;96692.00;5057960;28;20075;-64
2021/06/06 07:13:01;;;;;;;1.25;0.98;;;;;;;17.56;100.00;96684.94;5063414;28;20395;-63
2021/06/06 07:15:29;;;;;;;1.00;0.90;;;;;;;17.58;100.00;96697.25;5059783;28;20052;-64
2021/06/06 07:17:57;;;;;;;0.90;0.90;;;;;;;17.42;100.00;96690.25;5062198;28;20064;-64
2021/06/06 07:20:29;;;;;;;0.98;0.90;;;;;;;17.48;100.00;96694.84;5053623;28;20068;-64
2021/06/06 07:22:58;;;;;;;1.08;0.80;;;;;;;16.97;100.00;96694.66;5065028;28;20102;-63
2021/06/06 07:25:27;;;;;;;1.05;0.90;;;;;;;17.16;100.00;96691.47;5055841;28;20077;-64
2021/06/06 07:27:56;;;;;;;1.00;0.80;;;;;;;17.10;100.00;96692.19;5064753;28;20076;-64
2021/06/06 07:30:28;;;;;;;1.63;1.00;;;;;;;17.29;100.00;96686.34;5056225;28;20471;-64
2021/06/06 07:32:56;;;;;;;0.90;0.80;;;;;;;17.44;100.00;96680.22;5058566;28;20520;-62
2021/06/06 07:35:26;;;;;;;1.00;0.88;;;;;;;17.68;100.00;96682.63;5058923;28;20072;-63
2021/06/06 07:37:54;;;;;;;0.80;0.80;;;;;;;17.51;100.00;96694.47;5059200;28;20484;-64
2021/06/06 07:40:26;;;;;;;0.80;0.80;;;;;;;17.31;100.00;96689.69;5060703;28;20079;-64
2021/06/06 07:42:55;;;;;;;0.80;0.80;;;;;;;17.22;100.00;96688.09;5059725;28;20080;-63
2021/06/06 07:45:24;;;;;;;0.80;0.80;;;;;;;17.26;100.00;96688.56;5057761;28;20534;-64
2021/06/06 07:47:53;;;;;;;1.00;0.90;;;;;;;16.84;100.00;96688.06;5060075;28;20098;-64
2021/06/06 07:50:25;;;;;;;1.30;1.00;;;;;;;16.91;100.00;96688.19;5059736;28;20079;-66
2021/06/06 07:52:53;;;;;;;0.82;0.80;;;;;;;17.17;100.00;96692.28;5054518;28;20084;-64
2021/06/06 07:55:23;;;;;;;0.80;0.80;;;;;;;17.24;100.00;96686.09;5053521;28;20064;-65
2021/06/06 07:57:51;;;;;;;0.70;0.70;;;;;;;17.46;100.00;96686.22;5058586;28;20080;-65
2021/06/06 08:00:24;;;;;;;1.08;0.70;;;;;;;17.57;100.00;96680.41;5052769;28;20060;-64
2021/06/06 08:02:55;;;;;;;0.82;0.80;;;;;;;17.19;100.00;96679.63;5056993;28;20471;-64
2021/06/06 08:05:23;;;;;;;1.00;0.80;;;;;;;17.30;100.00;96684.50;5056685;28;20075;-64
2021/06/06 08:07:52;;;;;;;0.80;0.80;;;;;;;17.60;100.00;96687.22;5059957;28;20485;-64
2021/06/06 08:10:23;;;;;;;0.70;0.70;;;;;;;17.43;100.00;96686.56;5058663;28;20068;-63
2021/06/06 08:12:51;;;;;;;0.60;0.60;;;;;;;17.35;100.00;96686.66;5057689;28;20087;-64
2021/06/06 08:15:21;;;;;;;1.67;0.80;;;;;;;17.11;100.00;96685.88;5062503;28;20071;-65
2021/06/06 08:17:50;;;;;;;0.70;0.70;;;;;;;17.36;100.00;96680.31;5056340;28;20079;-64
2021/06/06 08:20:20;;;;;;;0.60;0.60;;;;;;;17.16;100.00;96687.97;5059963;28;20076;-64
2021/06/06 08:22:49;;;;;;;1.17;0.90;;;;;;;17.16;100.00;96685.31;5056468;28;20068;-65
2021/06/06 08:25:18;;;;;;;1.02;0.63;;;;;;;16.91;100.00;96679.38;5058125;28;20643;-64
2021/06/06 08:27:47;;;;;;;1.08;0.75;;;;;;;17.22;100.00;96701.41;5053201;28;20187;-65
2021/06/06 08:30:26;;;;;;;0.80;0.80;;;;;;;16.79;100.00;96690.47;5055407;28;20076;-65
2021/06/06 08:32:54;;;;;;;3.40;0.80;;;;;;;17.29;100.00;96685.53;5056393;28;20540;-65
2021/06/06 08:35:23;;;;;;;0.95;0.85;;;;;;;17.32;100.00;96686.00;5059302;28;20461;-64
2021/06/06 08:37:52;;;;;;;1.15;0.70;;;;;;;17.37;100.00;96685.44;5056566;28;20411;-62
2021/06/06 08:40:27;;;;;;;0.60;0.60;;;;;;;17.25;100.00;96685.06;5056867;28;20064;-61
2021/06/06 08:42:55;;;;;;;0.70;0.70;;;;;;;17.14;100.00;96684.69;5058583;28;20085;-63
2021/06/06 08:45:31;;;;;;;1.38;0.80;;;;;;;17.13;100.00;96683.84;5056560;28;20144;-64
2021/06/06 08:48:01;;;;;;;0.70;0.70;;;;;;;17.49;100.00;96686.66;5057332;28;20060;-65
2021/06/06 08:50:33;;;;;;;0.93;0.90;;;;;;;17.69;100.00;96683.47;5052687;28;20061;-65
2021/06/06 08:53:07;;;;;;;1.20;0.90;;;;;;;17.20;100.00;96684.75;5057716;28;20075;-65
2021/06/06 08:55:41;;;;;;;1.25;0.80;;;;;;;17.45;100.00;96680.06;5054881;28;20075;-64
2021/06/06 08:58:19;;;;;;;0.70;0.70;;;;;;;17.51;100.00;96681.13;5059596;28;20534;-64
2021/06/06 09:00:50;;;;;;;1.20;0.77;;;;;;;17.87;100.00;96678.63;5061728;28;20096;-65
2021/06/06 09:03:22;;;;;;;0.80;0.80;;;;;;;18.21;100.00;96691.38;5054566;28;20068;-64
2021/06/06 09:05:59;;;;;;;0.75;0.75;;;;;;;17.54;100.00;96688.78;5057877;28;20068;-65
2021/06/06 09:08:31;;;;;;;1.38;0.80;;;;;;;18.13;100.00;96683.44;5061655;28;20072;-64
2021/06/06 09:11:00;;;;;;;2.13;0.90;;;;;;;18.86;100.00;96678.13;5057380;28;20071;-65
2021/06/06 09:13:31;;;;;;;0.85;0.85;;;;;;;18.97;100.00;96672.28;5061143;28;20068;-65
2021/06/06 09:16:12;;;;;;;1.50;0.98;;;;;;;18.45;100.00;96679.53;5055916;28;20085;-64
2021/06/06 09:18:44;;;;;;;0.63;0.63;;;;;;;18.20;100.00;96679.06;5066145;28;20080;-65
2021/06/06 09:21:17;;;;;;;0.70;0.70;;;;;;;18.19;100.00;96679.22;5063819;28;20068;-65
2021/06/06 09:23:46;;;;;;;0.70;0.70;;;;;;;18.36;100.00;96677.97;5059487;28;20071;-64
2021/06/06 09:26:22;;;;;;;0.90;0.90;;;;;;;18.70;100.00;96682.66;5051428;28;20068;-65
2021/06/06 09:29:09;;;;;;;0.93;0.90;;;;;;;18.53;100.00;96669.75;5060119;28;20520;-64
2021/06/06 09:31:38;;;;;;;1.00;0.90;;;;;;;17.90;100.00;96686.25;5059714;28;20519;-64
2021/06/06 09:34:08;;;;;;;1.05;0.75;;;;;;;18.25;100.00;96686.47;5066252;28;20079;-65
2021/06/06 09:36:39;;;;;;;1.00;0.90;;;;;;;18.15;100.00;96691.28;5058240;28;20087;-61
2021/06/06 09:39:19;;;;;;;0.80;0.80;;;;;;;18.13;100.00;96696.78;5062496;28;20072;-63
2021/06/06 09:41:49;;;;;;;1.67;0.90;;;;;;;18.62;100.00;96687.31;5055023;28;20540;-64
2021/06/06 09:44:24;;;;;;;1.77;1.67;;;;;;;18.56;100.00;96686.22;5064147;28;20075;-65
2021/06/06 09:46:55;;;;;;;0.90;0.90;;;;;;;18.37;100.00;96689.50;5059253;28;20079;-63
2021/06/06 09:49:30;;;;;;;0.90;0.80;;;;;;;18.62;100.00;96695.34;5058445;28;20120;-62
2021/06/06 09:52:11;;;;;;;1.98;0.90;;;;;;;18.22;100.00;96693.03;5058285;28;20088;-64
2021/06/06 09:54:41;;;;;;;1.80;0.90;;;;;;;18.32;100.00;96690.06;5053023;28;20397;-63
2021/06/06 09:57:18;;;;;;;1.47;1.00;;;;;;;18.29;100.00;96693.09;5053801;28;20123;-65
2021/06/06 09:59:46;;;;;;;0.80;0.80;;;;;;;18.21;100.00;96694.03;5060307;28;20071;-65
2021/06/06 10:02:29;;;;;;;1.33;0.90;;;;;;;18.10;100.00;96699.00;5061995;28;20064;-65
2021/06/06 10:05:04;;;;;;;0.70;0.70;;;;;;;18.66;100.00;96680.56;5052404;28;20076;-65
2021/06/06 10:07:36;;;;;;;0.82;0.80;;;;;;;18.34;100.00;96684.50;5057648;28;20065;-66
2021/06/06 10:10:12;;;;;;;1.58;0.80;;;;;;;18.27;100.00;96685.28;5059847;28;20091;-65
2021/06/06 10:12:43;;;;;;;0.80;0.80;;;;;;;18.67;100.00;96684.88;5054383;28;20099;-64
2021/06/06 10:15:15;;;;;;;1.05;0.90;;;;;;;18.70;100.00;96690.69;5057297;28;20049;-63
2021/06/06 10:17:48;;;;;;;1.30;0.90;;;;;;;18.27;100.00;96687.97;5059991;28;20080;-64
2021/06/06 10:20:19;;;;;;;0.88;0.80;;;;;;;18.06;100.00;96695.88;5057443;28;20068;-64
2021/06/06 10:22:51;;;;;;;5.78;1.20;;;;;;;18.20;100.00;96689.72;5057861;28;20064;-65
2021/06/06 10:25:23;;;;;;;0.90;0.90;;;;;;;18.41;100.00;96685.41;5058951;28;20064;-65
2021/06/06 10:27:54;;;;;;;0.80;0.80;;;;;;;17.98;100.00;96688.00;5075650;28;20079;-64
2021/06/06 10:30:28;;;;;;;1.05;0.90;;;;;;;18.41;100.00;96691.63;5059170;28;20068;-64
2021/06/06 10:33:02;;;;;;;0.80;0.80;;;;;;;18.22;100.00;96678.84;5058092;28;20122;-65
2021/06/06 10:35:31;;;;;;;1.38;0.70;;;;;;;18.55;100.00;96686.38;5058829;28;20554;-63
2021/06/06 10:38:00;;;;;;;0.70;0.70;;;;;;;18.34;100.00;96681.84;5059016;28;20773;-63
2021/06/06 10:40:35;;;;;;;1.08;0.90;;;;;;;18.37;100.00;96670.78;5056675;28;20469;-65
2021/06/06 10:43:08;;;;;;;0.80;0.80;;;;;;;18.76;100.00;96681.13;5050675;28;20077;-63
2021/06/06 10:45:43;;;;;;;1.30;0.70;;;;;;;18.74;100.00;96683.97;5058148;28;20084;-63
2021/06/06 10:48:19;;;;;;;0.70;0.70;;;;;;;18.69;100.00;96677.53;5057356;28;20076;-63
2021/06/06 10:50:49;;;;;;;0.80;0.80;;;;;;;18.55;100.00;96673.03;5057901;28;20068;-63
2021/06/06 10:53:20;;;;;;;0.80;0.80;;;;;;;19.25;100.00;96674.97;5059585;28;20068;-64
2021/06/06 10:55:58;;;;;;;0.82;0.77;;;;;;;18.53;100.00;96677.75;5056630;28;20428;-63
2021/06/06 10:58:34;;;;;;;1.85;0.80;;;;;;;18.88;100.00;96676.09;5058363;28;20072;-63
2021/06/06 11:01:07;;;;;;;0.85;0.70;;;;;;;18.81;100.00;96689.38;5061855;28;20084;-62
2021/06/06 11:03:36;;;;;;;0.77;0.77;;;;;;;18.68;100.00;96686.53;5059424;28;20598;-63
2021/06/06 11:06:07;;;;;;;0.77;0.77;;;;;;;18.67;100.00;96683.03;5060997;28;20566;-63
2021/06/06 11:08:45;;;;;;;1.27;0.90;;;;;;;18.59;100.00;96685.03;5054605;28;20068;-64
2021/06/06 11:11:23;;;;;;;0.73;0.73;;;;;;;18.41;100.00;96683.59;5056725;28;20236;-61
2021/06/06 11:13:53;;;;;;;1.42;0.90;;;;;;;18.06;100.00;96687.06;5057979;28;20064;-64
2021/06/06 11:16:33;;;;;;;1.23;0.80;;;;;;;18.25;100.00;96681.97;5059138;28;20068;-61
2021/06/06 11:19:08;;;;;;;0.82;0.82;;;;;;;18.05;100.00;96682.75;5062946;28;20114;-64
2021/06/06 11:21:42;;;;;;;1.60;0.88;;;;;;;18.25;100.00;96673.13;5059825;28;20084;-63
2021/06/06 11:24:31;;;;;;;1.02;0.88;;;;;;;18.30;100.00;96673.38;5063318;28;20068;-64
2021/06/06 11:27:04;;;;;;;3.47;0.90;;;;;;;18.41;100.00;96677.41;5063885;28;20056;-64
2021/06/06 11:29:48;;;;;;;1.30;0.70;;;;;;;18.85;100.00;96673.78;5056950;28;20469;-63
2021/06/06 11:32:23;;;;;;;0.60;0.60;;;;;;;18.89;100.00;96667.88;5056265;28;20570;-64
2021/06/06 11:35:09;;;;;;;0.85;0.80;;;;;;;19.04;100.00;96665.13;5058429;28;20071;-62
2021/06/06 11:37:40;;;;;;;1.08;0.70;;;;;;;19.53;100.00;96663.44;5059404;28;20079;-64
2021/06/06 11:40:29;;;;;;;0.82;0.70;;;;;;;19.24;100.00;96659.97;5059978;28;20072;-59
2021/06/06 11:43:00;;;;;;;1.10;0.60;;;;;;;19.82;100.00;96654.38;5055784;28;20076;-59